sensor_id;sensor_type;location;lat;lon;timestamp;temperature;humidity
22578;DHT22;11455;52.390;13.028;2022-08-02T00:01:40;20.70;1.00
22578;DHT22;11455;52.390;13.028;2022-08-02T00:04:06;20.70;1.00
22578;DHT22;11455;52.390;13.028;2022-08-02T00:06:31;20.60;1.00
22578;DHT22;11455;52.390;13.028;2022-08-02T00:08:57;20.60;1.00
22578;DHT22;11455;52.390;13.028;2022-08-02T00:11:23;20.60;1.00
22578;DHT22;11455;52.390;13.028;2022-08-02T00:13:49;20.50;1.00
22578;DHT22;11455;52.390;13.028;2022-08-02T00:16:14;20.50;1.00
22578;DHT22;11455;52.390;13.028;2022-08-02T00:18:40;20.50;1.00
22578;DHT22;11455;52.390;13.028;2022-08-02T00:21:09;20.50;1.00
22578;DHT22;11455;52.390;13.028;2022-08-02T00:23:34;20.40;1.00
22578;DHT22;11455;52.390;13.028;2022-08-02T00:26:00;20.50;1.00
22578;DHT22;11455;52.390;13.028;2022-08-02T00:28:25;20.50;1.00
22578;DHT22;11455;52.390;13.028;2022-08-02T00:30:51;20.50;1.00
22578;DHT22;11455;52.390;13.028;2022-08-02T00:33:17;20.40;1.00
22578;DHT22;11455;52.390;13.028;2022-08-02T00:35:43;20.40;1.00
22578;DHT22;11455;52.390;13.028;2022-08-02T00:38:11;20.30;1.00
22578;DHT22;11455;52.390;13.028;2022-08-02T00:40:37;20.40;1.00
22578;DHT22;11455;52.390;13.028;2022-08-02T00:43:08;20.40;1.00
22578;DHT22;11455;52.390;13.028;2022-08-02T00:45:36;20.30;1.00
22578;DHT22;11455;52.390;13.028;2022-08-02T00:48:02;20.30;1.00
22578;DHT22;11455;52.390;13.028;2022-08-02T00:50:28;20.30;1.00
22578;DHT22;11455;52.390;13.028;2022-08-02T00:52:54;20.40;1.00
22578;DHT22;11455;52.390;13.028;2022-08-02T00:55:19;20.20;1.00
22578;DHT22;11455;52.390;13.028;2022-08-02T00:57:46;20.30;1.00
22578;DHT22;11455;52.390;13.028;2022-08-02T01:00:12;20.40;1.00
22578;DHT22;11455;52.390;13.028;2022-08-02T01:02:38;20.40;1.00
22578;DHT22;11455;52.390;13.028;2022-08-02T01:05:04;20.40;1.00
22578;DHT22;11455;52.390;13.028;2022-08-02T01:07:30;20.40;1.00
22578;DHT22;11455;52.390;13.028;2022-08-02T01:09:55;20.40;1.00
22578;DHT22;11455;52.390;13.028;2022-08-02T01:12:21;20.30;1.00
22578;DHT22;11455;52.390;13.028;2022-08-02T01:14:47;20.40;1.00
22578;DHT22;11455;52.390;13.028;2022-08-02T01:17:28;20.40;1.00
22578;DHT22;11455;52.390;13.028;2022-08-02T01:20:07;20.40;1.00
22578;DHT22;11455;52.390;13.028;2022-08-02T01:28:14;20.70;1.00
22578;DHT22;11455;52.390;13.028;2022-08-02T01:30:22;20.60;1.00
22578;DHT22;11455;52.390;13.028;2022-08-02T01:32:49;20.50;1.00
22578;DHT22;11455;52.390;13.028;2022-08-02T01:35:22;20.40;1.00
22578;DHT22;11455;52.390;13.028;2022-08-02T01:37:53;20.20;1.00
22578;DHT22;11455;52.390;13.028;2022-08-02T01:40:21;20.20;1.00
22578;DHT22;11455;52.390;13.028;2022-08-02T01:42:51;20.20;1.00
22578;DHT22;11455;52.390;13.028;2022-08-02T01:45:20;20.30;1.00
22578;DHT22;11455;52.390;13.028;2022-08-02T01:47:47;20.20;1.00
22578;DHT22;11455;52.390;13.028;2022-08-02T01:50:15;20.20;1.00
22578;DHT22;11455;52.390;13.028;2022-08-02T01:52:42;20.20;1.00
22578;DHT22;11455;52.390;13.028;2022-08-02T01:55:14;20.10;1.00
22578;DHT22;11455;52.390;13.028;2022-08-02T01:57:48;20.10;1.00
22578;DHT22;11455;52.390;13.028;2022-08-02T02:00:14;20.10;1.00
22578;DHT22;11455;52.390;13.028;2022-08-02T02:02:41;20.20;1.00
22578;DHT22;11455;52.390;13.028;2022-08-02T02:05:15;20.20;1.00
22578;DHT22;11455;52.390;13.028;2022-08-02T02:07:42;20.10;1.00
22578;DHT22;11455;52.390;13.028;2022-08-02T02:10:12;20.00;1.00
22578;DHT22;11455;52.390;13.028;2022-08-02T02:12:40;20.00;1.00
22578;DHT22;11455;52.390;13.028;2022-08-02T02:15:08;19.90;1.00
22578;DHT22;11455;52.390;13.028;2022-08-02T02:17:34;19.80;1.00
22578;DHT22;11455;52.390;13.028;2022-08-02T02:20:00;19.80;1.00
22578;DHT22;11455;52.390;13.028;2022-08-02T02:22:26;19.90;1.00
22578;DHT22;11455;52.390;13.028;2022-08-02T02:24:52;19.90;1.00
22578;DHT22;11455;52.390;13.028;2022-08-02T02:27:18;20.10;1.00
22578;DHT22;11455;52.390;13.028;2022-08-02T02:29:46;20.20;1.00
22578;DHT22;11455;52.390;13.028;2022-08-02T02:32:14;20.30;1.00
22578;DHT22;11455;52.390;13.028;2022-08-02T02:34:41;20.30;1.00
22578;DHT22;11455;52.390;13.028;2022-08-02T02:37:15;20.30;1.00
22578;DHT22;11455;52.390;13.028;2022-08-02T02:39:41;20.20;1.00
22578;DHT22;11455;52.390;13.028;2022-08-02T02:42:10;20.40;1.00
22578;DHT22;11455;52.390;13.028;2022-08-02T02:44:37;20.50;1.00
22578;DHT22;11455;52.390;13.028;2022-08-02T02:47:04;20.60;1.00
22578;DHT22;11455;52.390;13.028;2022-08-02T02:49:33;20.50;1.00
22578;DHT22;11455;52.390;13.028;2022-08-02T02:51:59;20.30;1.00
22578;DHT22;11455;52.390;13.028;2022-08-02T02:54:25;20.40;1.00
22578;DHT22;11455;52.390;13.028;2022-08-02T02:56:51;20.30;1.00
22578;DHT22;11455;52.390;13.028;2022-08-02T02:59:18;20.30;1.00
22578;DHT22;11455;52.390;13.028;2022-08-02T03:01:44;20.40;1.00
22578;DHT22;11455;52.390;13.028;2022-08-02T03:04:10;20.40;1.00
22578;DHT22;11455;52.390;13.028;2022-08-02T03:06:36;20.50;1.00
22578;DHT22;11455;52.390;13.028;2022-08-02T03:09:03;20.50;1.00
22578;DHT22;11455;52.390;13.028;2022-08-02T03:11:28;20.30;1.00
22578;DHT22;11455;52.390;13.028;2022-08-02T03:13:56;20.10;1.00
22578;DHT22;11455;52.390;13.028;2022-08-02T03:16:22;20.00;1.00
22578;DHT22;11455;52.390;13.028;2022-08-02T03:18:47;19.80;1.00
22578;DHT22;11455;52.390;13.028;2022-08-02T03:21:13;19.70;1.00
22578;DHT22;11455;52.390;13.028;2022-08-02T03:23:39;19.60;1.00
22578;DHT22;11455;52.390;13.028;2022-08-02T03:26:07;19.40;1.00
22578;DHT22;11455;52.390;13.028;2022-08-02T03:28:33;19.20;1.00
22578;DHT22;11455;52.390;13.028;2022-08-02T03:30:59;19.20;1.00
22578;DHT22;11455;52.390;13.028;2022-08-02T03:33:25;19.10;1.00
22578;DHT22;11455;52.390;13.028;2022-08-02T03:35:51;19.20;1.00
22578;DHT22;11455;52.390;13.028;2022-08-02T03:38:19;19.40;1.00
22578;DHT22;11455;52.390;13.028;2022-08-02T03:40:45;19.60;1.00
22578;DHT22;11455;52.390;13.028;2022-08-02T03:43:11;19.80;1.00
22578;DHT22;11455;52.390;13.028;2022-08-02T03:45:38;20.10;1.00
22578;DHT22;11455;52.390;13.028;2022-08-02T03:48:04;20.20;1.00
22578;DHT22;11455;52.390;13.028;2022-08-02T03:50:30;20.40;1.00
22578;DHT22;11455;52.390;13.028;2022-08-02T03:52:56;20.40;1.00
22578;DHT22;11455;52.390;13.028;2022-08-02T03:55:22;20.20;1.00
22578;DHT22;11455;52.390;13.028;2022-08-02T03:57:47;19.90;1.00
22578;DHT22;11455;52.390;13.028;2022-08-02T04:00:16;19.70;1.00
22578;DHT22;11455;52.390;13.028;2022-08-02T04:02:42;19.60;1.00
22578;DHT22;11455;52.390;13.028;2022-08-02T04:05:08;19.50;1.00
22578;DHT22;11455;52.390;13.028;2022-08-02T04:07:33;19.50;1.00
22578;DHT22;11455;52.390;13.028;2022-08-02T04:09:59;19.60;1.00
22578;DHT22;11455;52.390;13.028;2022-08-02T04:12:25;19.60;1.00
22578;DHT22;11455;52.390;13.028;2022-08-02T04:14:50;19.60;1.00
22578;DHT22;11455;52.390;13.028;2022-08-02T04:17:16;19.70;1.00
22578;DHT22;11455;52.390;13.028;2022-08-02T04:19:44;19.70;1.00
22578;DHT22;11455;52.390;13.028;2022-08-02T04:22:18;19.80;1.00
22578;DHT22;11455;52.390;13.028;2022-08-02T04:24:46;19.80;1.00
22578;DHT22;11455;52.390;13.028;2022-08-02T04:27:13;19.80;1.00
22578;DHT22;11455;52.390;13.028;2022-08-02T04:29:40;19.80;1.00
22578;DHT22;11455;52.390;13.028;2022-08-02T04:32:06;19.70;1.00
22578;DHT22;11455;52.390;13.028;2022-08-02T04:34:32;19.60;1.00
22578;DHT22;11455;52.390;13.028;2022-08-02T04:37:00;19.40;1.00
22578;DHT22;11455;52.390;13.028;2022-08-02T04:39:28;19.20;1.00
22578;DHT22;11455;52.390;13.028;2022-08-02T04:41:54;19.30;1.00
22578;DHT22;11455;52.390;13.028;2022-08-02T04:44:20;19.30;1.00
22578;DHT22;11455;52.390;13.028;2022-08-02T04:46:46;19.40;1.00
22578;DHT22;11455;52.390;13.028;2022-08-02T04:49:11;19.40;1.00
22578;DHT22;11455;52.390;13.028;2022-08-02T04:51:38;19.50;1.00
22578;DHT22;11455;52.390;13.028;2022-08-02T04:54:04;19.50;1.00
22578;DHT22;11455;52.390;13.028;2022-08-02T04:56:32;19.50;1.00
22578;DHT22;11455;52.390;13.028;2022-08-02T04:58:58;19.60;1.00
22578;DHT22;11455;52.390;13.028;2022-08-02T05:01:24;19.60;1.00
22578;DHT22;11455;52.390;13.028;2022-08-02T05:03:49;19.70;1.00
22578;DHT22;11455;52.390;13.028;2022-08-02T05:06:15;19.60;1.00
22578;DHT22;11455;52.390;13.028;2022-08-02T05:08:41;19.70;1.00
22578;DHT22;11455;52.390;13.028;2022-08-02T05:11:06;19.70;1.00
22578;DHT22;11455;52.390;13.028;2022-08-02T05:13:32;19.80;1.00
22578;DHT22;11455;52.390;13.028;2022-08-02T05:15:57;19.80;1.00
22578;DHT22;11455;52.390;13.028;2022-08-02T05:18:26;19.90;1.00
22578;DHT22;11455;52.390;13.028;2022-08-02T05:20:52;20.00;1.00
22578;DHT22;11455;52.390;13.028;2022-08-02T05:23:18;19.90;1.00
22578;DHT22;11455;52.390;13.028;2022-08-02T05:25:44;19.90;1.00
22578;DHT22;11455;52.390;13.028;2022-08-02T05:28:09;19.80;1.00
22578;DHT22;11455;52.390;13.028;2022-08-02T05:30:35;19.70;1.00
22578;DHT22;11455;52.390;13.028;2022-08-02T05:33:01;19.60;1.00
22578;DHT22;11455;52.390;13.028;2022-08-02T05:35:27;19.60;1.00
22578;DHT22;11455;52.390;13.028;2022-08-02T05:37:52;19.60;1.00
22578;DHT22;11455;52.390;13.028;2022-08-02T05:40:18;19.60;1.00
22578;DHT22;11455;52.390;13.028;2022-08-02T05:42:44;19.80;1.00
22578;DHT22;11455;52.390;13.028;2022-08-02T05:45:10;19.80;1.00
22578;DHT22;11455;52.390;13.028;2022-08-02T05:47:36;19.90;1.00
22578;DHT22;11455;52.390;13.028;2022-08-02T05:50:03;19.90;1.00
22578;DHT22;11455;52.390;13.028;2022-08-02T05:52:49;20.00;1.00
22578;DHT22;11455;52.390;13.028;2022-08-02T05:55:16;20.10;1.00
22578;DHT22;11455;52.390;13.028;2022-08-02T05:57:54;20.10;1.00
22578;DHT22;11455;52.390;13.028;2022-08-02T06:00:22;20.20;1.00
22578;DHT22;11455;52.390;13.028;2022-08-02T06:05:15;20.30;1.00
22578;DHT22;11455;52.390;13.028;2022-08-02T06:07:42;20.20;1.00
22578;DHT22;11455;52.390;13.028;2022-08-02T06:10:07;20.20;1.00
22578;DHT22;11455;52.390;13.028;2022-08-02T06:12:43;20.10;1.00
22578;DHT22;11455;52.390;13.028;2022-08-02T06:15:12;20.20;1.00
22578;DHT22;11455;52.390;13.028;2022-08-02T06:17:39;20.20;1.00
22578;DHT22;11455;52.390;13.028;2022-08-02T06:20:04;20.30;1.00
22578;DHT22;11455;52.390;13.028;2022-08-02T06:22:30;20.40;1.00
22578;DHT22;11455;52.390;13.028;2022-08-02T06:24:58;20.40;1.00
22578;DHT22;11455;52.390;13.028;2022-08-02T06:27:27;20.40;1.00
22578;DHT22;11455;52.390;13.028;2022-08-02T06:29:54;20.40;1.00
22578;DHT22;11455;52.390;13.028;2022-08-02T06:32:20;20.50;1.00
22578;DHT22;11455;52.390;13.028;2022-08-02T06:34:46;20.50;1.00
22578;DHT22;11455;52.390;13.028;2022-08-02T06:39:45;20.60;1.00
22578;DHT22;11455;52.390;13.028;2022-08-02T06:42:12;20.60;1.00
22578;DHT22;11455;52.390;13.028;2022-08-02T06:44:44;20.70;1.00
22578;DHT22;11455;52.390;13.028;2022-08-02T06:47:09;20.80;1.00
22578;DHT22;11455;52.390;13.028;2022-08-02T06:49:35;20.70;1.00
22578;DHT22;11455;52.390;13.028;2022-08-02T06:52:01;20.70;1.00
22578;DHT22;11455;52.390;13.028;2022-08-02T06:54:27;20.80;1.00
22578;DHT22;11455;52.390;13.028;2022-08-02T06:56:53;21.00;1.00
22578;DHT22;11455;52.390;13.028;2022-08-02T06:59:19;21.00;1.00
22578;DHT22;11455;52.390;13.028;2022-08-02T07:01:44;21.10;1.00
22578;DHT22;11455;52.390;13.028;2022-08-02T07:04:10;21.10;1.00
22578;DHT22;11455;52.390;13.028;2022-08-02T07:06:35;21.10;1.00
22578;DHT22;11455;52.390;13.028;2022-08-02T07:09:01;21.00;1.00
22578;DHT22;11455;52.390;13.028;2022-08-02T07:11:27;21.00;1.00
22578;DHT22;11455;52.390;13.028;2022-08-02T07:13:52;21.10;1.00
22578;DHT22;11455;52.390;13.028;2022-08-02T07:16:18;21.20;1.00
22578;DHT22;11455;52.390;13.028;2022-08-02T07:18:43;21.30;1.00
22578;DHT22;11455;52.390;13.028;2022-08-02T07:21:15;21.40;1.00
22578;DHT22;11455;52.390;13.028;2022-08-02T07:23:48;21.50;1.00
22578;DHT22;11455;52.390;13.028;2022-08-02T07:26:14;21.50;1.00
22578;DHT22;11455;52.390;13.028;2022-08-02T07:28:39;21.60;1.00
22578;DHT22;11455;52.390;13.028;2022-08-02T07:31:05;21.60;1.00
22578;DHT22;11455;52.390;13.028;2022-08-02T07:33:31;21.70;1.00
22578;DHT22;11455;52.390;13.028;2022-08-02T07:35:56;21.70;1.00
22578;DHT22;11455;52.390;13.028;2022-08-02T07:38:23;21.70;1.00
22578;DHT22;11455;52.390;13.028;2022-08-02T07:40:49;21.80;1.00
22578;DHT22;11455;52.390;13.028;2022-08-02T07:43:15;21.90;1.00
22578;DHT22;11455;52.390;13.028;2022-08-02T07:45:41;21.90;1.00
22578;DHT22;11455;52.390;13.028;2022-08-02T07:48:07;21.90;1.00
22578;DHT22;11455;52.390;13.028;2022-08-02T07:50:33;21.90;1.00
22578;DHT22;11455;52.390;13.028;2022-08-02T07:52:58;22.00;1.00
22578;DHT22;11455;52.390;13.028;2022-08-02T07:55:24;22.00;1.00
22578;DHT22;11455;52.390;13.028;2022-08-02T07:57:50;22.10;1.00
22578;DHT22;11455;52.390;13.028;2022-08-02T08:00:16;22.10;1.00
22578;DHT22;11455;52.390;13.028;2022-08-02T08:02:42;22.10;1.00
22578;DHT22;11455;52.390;13.028;2022-08-02T08:05:08;22.20;1.00
22578;DHT22;11455;52.390;13.028;2022-08-02T08:07:34;22.30;1.00
22578;DHT22;11455;52.390;13.028;2022-08-02T08:09:59;22.30;1.00
22578;DHT22;11455;52.390;13.028;2022-08-02T08:12:27;22.40;1.00
22578;DHT22;11455;52.390;13.028;2022-08-02T08:14:53;22.20;1.00
22578;DHT22;11455;52.390;13.028;2022-08-02T08:17:19;22.30;1.00
22578;DHT22;11455;52.390;13.028;2022-08-02T08:19:44;22.40;1.00
22578;DHT22;11455;52.390;13.028;2022-08-02T08:22:10;22.40;1.00
22578;DHT22;11455;52.390;13.028;2022-08-02T08:24:35;22.20;1.00
22578;DHT22;11455;52.390;13.028;2022-08-02T08:27:03;22.20;1.00
22578;DHT22;11455;52.390;13.028;2022-08-02T08:29:29;22.10;1.00
22578;DHT22;11455;52.390;13.028;2022-08-02T08:31:55;22.20;1.00
22578;DHT22;11455;52.390;13.028;2022-08-02T08:34:20;22.20;1.00
22578;DHT22;11455;52.390;13.028;2022-08-02T08:36:48;22.20;1.00
22578;DHT22;11455;52.390;13.028;2022-08-02T08:39:14;22.30;1.00
22578;DHT22;11455;52.390;13.028;2022-08-02T08:41:44;22.30;1.00
22578;DHT22;11455;52.390;13.028;2022-08-02T08:44:09;22.30;1.00
22578;DHT22;11455;52.390;13.028;2022-08-02T08:46:39;22.40;1.00
22578;DHT22;11455;52.390;13.028;2022-08-02T08:49:11;22.40;1.00
22578;DHT22;11455;52.390;13.028;2022-08-02T08:51:43;22.30;1.00
22578;DHT22;11455;52.390;13.028;2022-08-02T08:54:12;22.40;1.00
22578;DHT22;11455;52.390;13.028;2022-08-02T08:56:39;22.40;1.00
22578;DHT22;11455;52.390;13.028;2022-08-02T08:59:06;22.50;1.00
22578;DHT22;11455;52.390;13.028;2022-08-02T09:01:34;22.70;1.00
22578;DHT22;11455;52.390;13.028;2022-08-02T09:04:00;22.80;1.00
22578;DHT22;11455;52.390;13.028;2022-08-02T09:06:26;22.90;1.00
22578;DHT22;11455;52.390;13.028;2022-08-02T09:08:52;22.80;1.00
22578;DHT22;11455;52.390;13.028;2022-08-02T09:11:19;22.90;1.00
22578;DHT22;11455;52.390;13.028;2022-08-02T09:13:48;22.80;1.00
22578;DHT22;11455;52.390;13.028;2022-08-02T09:16:15;22.80;1.00
22578;DHT22;11455;52.390;13.028;2022-08-02T09:18:51;22.90;1.00
22578;DHT22;11455;52.390;13.028;2022-08-02T09:21:17;23.00;1.00
22578;DHT22;11455;52.390;13.028;2022-08-02T09:23:43;23.00;1.00
22578;DHT22;11455;52.390;13.028;2022-08-02T09:26:11;23.10;1.00
22578;DHT22;11455;52.390;13.028;2022-08-02T09:28:38;23.30;1.00
22578;DHT22;11455;52.390;13.028;2022-08-02T09:31:05;23.50;1.00
22578;DHT22;11455;52.390;13.028;2022-08-02T09:33:31;23.60;1.00
22578;DHT22;11455;52.390;13.028;2022-08-02T09:36:04;23.60;1.00
22578;DHT22;11455;52.390;13.028;2022-08-02T09:38:30;23.70;1.00
22578;DHT22;11455;52.390;13.028;2022-08-02T09:40:56;23.70;1.00
22578;DHT22;11455;52.390;13.028;2022-08-02T09:43:35;23.80;1.00
22578;DHT22;11455;52.390;13.028;2022-08-02T09:48:55;24.00;1.00
22578;DHT22;11455;52.390;13.028;2022-08-02T09:51:29;24.10;1.00
22578;DHT22;11455;52.390;13.028;2022-08-02T09:53:59;24.20;1.00
22578;DHT22;11455;52.390;13.028;2022-08-02T09:56:27;24.10;1.00
22578;DHT22;11455;52.390;13.028;2022-08-02T09:58:53;24.10;1.00
22578;DHT22;11455;52.390;13.028;2022-08-02T10:01:29;24.10;1.00
22578;DHT22;11455;52.390;13.028;2022-08-02T10:03:59;24.20;1.00
22578;DHT22;11455;52.390;13.028;2022-08-02T10:06:25;24.30;1.00
22578;DHT22;11455;52.390;13.028;2022-08-02T10:08:51;24.30;1.00
22578;DHT22;11455;52.390;13.028;2022-08-02T10:11:21;24.30;1.00
22578;DHT22;11455;52.390;13.028;2022-08-02T10:13:49;24.30;1.00
22578;DHT22;11455;52.390;13.028;2022-08-02T10:16:16;24.30;1.00
22578;DHT22;11455;52.390;13.028;2022-08-02T10:18:44;24.30;1.00
22578;DHT22;11455;52.390;13.028;2022-08-02T10:21:22;24.20;1.00
22578;DHT22;11455;52.390;13.028;2022-08-02T10:23:48;24.20;1.00
22578;DHT22;11455;52.390;13.028;2022-08-02T10:26:15;24.40;1.00
22578;DHT22;11455;52.390;13.028;2022-08-02T10:28:41;24.50;1.00
22578;DHT22;11455;52.390;13.028;2022-08-02T10:31:08;24.60;1.00
22578;DHT22;11455;52.390;13.028;2022-08-02T10:33:34;24.60;1.00
22578;DHT22;11455;52.390;13.028;2022-08-02T10:36:03;24.60;1.00
22578;DHT22;11455;52.390;13.028;2022-08-02T10:38:32;24.40;1.00
22578;DHT22;11455;52.390;13.028;2022-08-02T10:40:58;24.20;1.00
22578;DHT22;11455;52.390;13.028;2022-08-02T10:49:02;24.40;1.00
22578;DHT22;11455;52.390;13.028;2022-08-02T10:54:16;24.50;1.00
22578;DHT22;11455;52.390;13.028;2022-08-02T10:56:48;24.50;1.00
22578;DHT22;11455;52.390;13.028;2022-08-02T10:59:48;24.70;1.00
22578;DHT22;11455;52.390;13.028;2022-08-02T11:02:06;24.70;1.00
22578;DHT22;11455;52.390;13.028;2022-08-02T11:07:14;24.70;1.00
22578;DHT22;11455;52.390;13.028;2022-08-02T11:09:45;24.70;1.00
22578;DHT22;11455;52.390;13.028;2022-08-02T11:12:14;24.50;1.00
22578;DHT22;11455;52.390;13.028;2022-08-02T11:14:41;24.50;1.00
22578;DHT22;11455;52.390;13.028;2022-08-02T11:17:08;24.60;1.00
22578;DHT22;11455;52.390;13.028;2022-08-02T11:22:22;24.90;1.00
22578;DHT22;11455;52.390;13.028;2022-08-02T11:24:48;24.90;1.00
22578;DHT22;11455;52.390;13.028;2022-08-02T11:27:16;24.90;1.00
22578;DHT22;11455;52.390;13.028;2022-08-02T11:29:42;25.00;1.00
22578;DHT22;11455;52.390;13.028;2022-08-02T11:32:20;25.10;1.00
22578;DHT22;11455;52.390;13.028;2022-08-02T11:34:49;25.00;1.00
22578;DHT22;11455;52.390;13.028;2022-08-02T11:37:28;25.00;1.00
22578;DHT22;11455;52.390;13.028;2022-08-02T11:39:54;25.00;1.00
22578;DHT22;11455;52.390;13.028;2022-08-02T11:42:20;25.10;1.00
22578;DHT22;11455;52.390;13.028;2022-08-02T11:44:46;25.10;1.00
22578;DHT22;11455;52.390;13.028;2022-08-02T11:47:13;25.10;1.00
22578;DHT22;11455;52.390;13.028;2022-08-02T11:49:42;25.10;1.00
22578;DHT22;11455;52.390;13.028;2022-08-02T11:52:09;25.20;1.00
22578;DHT22;11455;52.390;13.028;2022-08-02T11:54:35;25.30;1.00
22578;DHT22;11455;52.390;13.028;2022-08-02T11:57:18;25.30;1.00
22578;DHT22;11455;52.390;13.028;2022-08-02T11:59:49;25.30;1.00
22578;DHT22;11455;52.390;13.028;2022-08-02T12:02:15;25.40;1.00
22578;DHT22;11455;52.390;13.028;2022-08-02T12:04:41;25.50;1.00
22578;DHT22;11455;52.390;13.028;2022-08-02T12:07:07;25.60;1.00
22578;DHT22;11455;52.390;13.028;2022-08-02T12:09:33;25.80;1.00
22578;DHT22;11455;52.390;13.028;2022-08-02T12:11:59;25.90;1.00
22578;DHT22;11455;52.390;13.028;2022-08-02T12:14:25;26.00;1.00
22578;DHT22;11455;52.390;13.028;2022-08-02T12:16:52;26.20;1.00
22578;DHT22;11455;52.390;13.028;2022-08-02T12:19:36;26.20;1.00
22578;DHT22;11455;52.390;13.028;2022-08-02T12:22:12;26.30;1.00
22578;DHT22;11455;52.390;13.028;2022-08-02T12:24:39;26.40;1.00
22578;DHT22;11455;52.390;13.028;2022-08-02T12:27:05;26.50;1.00
22578;DHT22;11455;52.390;13.028;2022-08-02T12:32:00;26.50;99.90
22578;DHT22;11455;52.390;13.028;2022-08-02T12:34:26;26.40;99.90
22578;DHT22;11455;52.390;13.028;2022-08-02T12:37:03;26.40;99.90
22578;DHT22;11455;52.390;13.028;2022-08-02T12:41:58;26.70;99.90
22578;DHT22;11455;52.390;13.028;2022-08-02T12:44:24;26.80;99.90
22578;DHT22;11455;52.390;13.028;2022-08-02T12:47:02;26.90;99.90
22578;DHT22;11455;52.390;13.028;2022-08-02T12:49:29;27.00;99.90
22578;DHT22;11455;52.390;13.028;2022-08-02T12:51:54;27.00;99.90
22578;DHT22;11455;52.390;13.028;2022-08-02T12:54:21;27.10;99.90
22578;DHT22;11455;52.390;13.028;2022-08-02T12:56:50;27.20;99.90
22578;DHT22;11455;52.390;13.028;2022-08-02T12:59:16;27.40;99.90
22578;DHT22;11455;52.390;13.028;2022-08-02T13:01:42;27.60;99.90
22578;DHT22;11455;52.390;13.028;2022-08-02T13:04:07;27.70;99.90
22578;DHT22;11455;52.390;13.028;2022-08-02T13:06:33;27.70;99.90
22578;DHT22;11455;52.390;13.028;2022-08-02T13:09:00;27.70;99.90
22578;DHT22;11455;52.390;13.028;2022-08-02T13:11:26;27.70;99.90
22578;DHT22;11455;52.390;13.028;2022-08-02T13:13:52;27.80;99.90
22578;DHT22;11455;52.390;13.028;2022-08-02T13:16:18;28.00;99.90
22578;DHT22;11455;52.390;13.028;2022-08-02T13:18:43;28.20;99.90
22578;DHT22;11455;52.390;13.028;2022-08-02T13:21:12;28.30;99.90
22578;DHT22;11455;52.390;13.028;2022-08-02T13:23:38;28.10;99.90
22578;DHT22;11455;52.390;13.028;2022-08-02T13:26:04;28.10;99.90
22578;DHT22;11455;52.390;13.028;2022-08-02T13:28:29;28.30;99.90
22578;DHT22;11455;52.390;13.028;2022-08-02T13:30:55;28.50;99.90
22578;DHT22;11455;52.390;13.028;2022-08-02T13:33:21;28.80;99.90
22578;DHT22;11455;52.390;13.028;2022-08-02T13:35:49;28.90;99.90
22578;DHT22;11455;52.390;13.028;2022-08-02T13:38:15;29.00;99.90
22578;DHT22;11455;52.390;13.028;2022-08-02T13:40:40;29.10;99.90
22578;DHT22;11455;52.390;13.028;2022-08-02T13:43:45;29.20;99.90
22578;DHT22;11455;52.390;13.028;2022-08-02T13:46:13;29.20;99.90
22578;DHT22;11455;52.390;13.028;2022-08-02T13:48:38;29.20;99.90
22578;DHT22;11455;52.390;13.028;2022-08-02T13:51:04;29.30;99.90
22578;DHT22;11455;52.390;13.028;2022-08-02T13:53:39;29.10;99.90
22578;DHT22;11455;52.390;13.028;2022-08-02T13:56:05;28.90;99.90
22578;DHT22;11455;52.390;13.028;2022-08-02T13:58:31;28.80;99.90
22578;DHT22;11455;52.390;13.028;2022-08-02T14:00:57;28.70;99.90
22578;DHT22;11455;52.390;13.028;2022-08-02T14:03:23;28.80;99.90
22578;DHT22;11455;52.390;13.028;2022-08-02T14:05:49;28.90;99.90
22578;DHT22;11455;52.390;13.028;2022-08-02T14:08:15;28.90;99.90
22578;DHT22;11455;52.390;13.028;2022-08-02T14:10:42;29.00;99.90
22578;DHT22;11455;52.390;13.028;2022-08-02T14:13:07;29.10;99.90
22578;DHT22;11455;52.390;13.028;2022-08-02T14:15:33;29.10;99.90
22578;DHT22;11455;52.390;13.028;2022-08-02T14:17:59;29.20;99.90
22578;DHT22;11455;52.390;13.028;2022-08-02T14:20:25;29.20;99.90
22578;DHT22;11455;52.390;13.028;2022-08-02T14:22:50;29.20;99.90
22578;DHT22;11455;52.390;13.028;2022-08-02T14:25:17;29.10;99.90
22578;DHT22;11455;52.390;13.028;2022-08-02T14:27:42;29.00;99.90
22578;DHT22;11455;52.390;13.028;2022-08-02T14:30:08;29.00;99.90
22578;DHT22;11455;52.390;13.028;2022-08-02T14:32:34;28.90;99.90
22578;DHT22;11455;52.390;13.028;2022-08-02T14:34:59;28.90;99.90
22578;DHT22;11455;52.390;13.028;2022-08-02T14:37:25;29.00;99.90
22578;DHT22;11455;52.390;13.028;2022-08-02T14:39:50;29.00;99.90
22578;DHT22;11455;52.390;13.028;2022-08-02T14:42:16;29.10;99.90
22578;DHT22;11455;52.390;13.028;2022-08-02T14:44:42;29.10;99.90
22578;DHT22;11455;52.390;13.028;2022-08-02T14:47:07;29.00;99.90
22578;DHT22;11455;52.390;13.028;2022-08-02T14:49:34;28.90;99.90
22578;DHT22;11455;52.390;13.028;2022-08-02T14:52:04;28.80;99.90
22578;DHT22;11455;52.390;13.028;2022-08-02T14:54:30;28.70;99.90
22578;DHT22;11455;52.390;13.028;2022-08-02T14:56:57;28.70;99.90
22578;DHT22;11455;52.390;13.028;2022-08-02T14:59:24;28.60;99.90
22578;DHT22;11455;52.390;13.028;2022-08-02T15:01:49;28.60;99.90
22578;DHT22;11455;52.390;13.028;2022-08-02T15:04:15;28.40;99.90
22578;DHT22;11455;52.390;13.028;2022-08-02T15:06:41;28.20;99.90
22578;DHT22;11455;52.390;13.028;2022-08-02T15:09:07;28.10;99.90
22578;DHT22;11455;52.390;13.028;2022-08-02T15:11:32;28.00;99.90
22578;DHT22;11455;52.390;13.028;2022-08-02T15:13:58;28.00;99.90
22578;DHT22;11455;52.390;13.028;2022-08-02T15:16:24;27.90;99.90
22578;DHT22;11455;52.390;13.028;2022-08-02T15:18:50;27.80;99.90
22578;DHT22;11455;52.390;13.028;2022-08-02T15:21:15;27.80;99.90
22578;DHT22;11455;52.390;13.028;2022-08-02T15:23:43;27.70;99.90
22578;DHT22;11455;52.390;13.028;2022-08-02T15:26:10;27.70;99.90
22578;DHT22;11455;52.390;13.028;2022-08-02T15:28:36;27.70;99.90
22578;DHT22;11455;52.390;13.028;2022-08-02T15:31:03;27.70;99.90
22578;DHT22;11455;52.390;13.028;2022-08-02T15:33:28;27.70;99.90
22578;DHT22;11455;52.390;13.028;2022-08-02T15:35:54;27.70;99.90
22578;DHT22;11455;52.390;13.028;2022-08-02T15:38:19;27.70;99.90
22578;DHT22;11455;52.390;13.028;2022-08-02T15:40:47;27.80;99.90
22578;DHT22;11455;52.390;13.028;2022-08-02T15:43:12;27.90;99.90
22578;DHT22;11455;52.390;13.028;2022-08-02T15:45:39;27.90;99.90
22578;DHT22;11455;52.390;13.028;2022-08-02T15:48:05;27.80;99.90
22578;DHT22;11455;52.390;13.028;2022-08-02T15:50:31;27.70;99.90
22578;DHT22;11455;52.390;13.028;2022-08-02T15:53:00;27.80;99.90
22578;DHT22;11455;52.390;13.028;2022-08-02T15:55:25;27.90;99.90
22578;DHT22;11455;52.390;13.028;2022-08-02T15:57:51;27.90;99.90
22578;DHT22;11455;52.390;13.028;2022-08-02T16:00:17;28.00;99.90